sensor_id;sensor_type;location;lat;lon;timestamp;P1;durP1;ratioP1;P2;durP2;ratioP2
36137;SDS011;67787;50.074;21.904;2023-04-28T00:00:00;52.20;;;30.40;;
36137;SDS011;67787;50.074;21.904;2023-04-28T00:02:49;58.60;;;28.90;;
36137;SDS011;67787;50.074;21.904;2023-04-28T00:05:17;56.60;;;28.10;;
36137;SDS011;67787;50.074;21.904;2023-04-28T00:07:46;59.60;;;28.10;;
36137;SDS011;67787;50.074;21.904;2023-04-28T00:10:14;56.10;;;28.10;;
36137;SDS011;67787;50.074;21.904;2023-04-28T00:12:42;56.00;;;25.40;;
36137;SDS011;67787;50.074;21.904;2023-04-28T00:15:10;50.90;;;26.60;;
36137;SDS011;67787;50.074;21.904;2023-04-28T00:17:39;49.70;;;25.80;;
36137;SDS011;67787;50.074;21.904;2023-04-28T00:20:07;49.40;;;25.30;;
36137;SDS011;67787;50.074;21.904;2023-04-28T00:22:36;51.70;;;25.10;;
36137;SDS011;67787;50.074;21.904;2023-04-28T00:25:22;44.20;;;22.80;;
36137;SDS011;67787;50.074;21.904;2023-04-28T00:28:07;53.90;;;25.50;;
36137;SDS011;67787;50.074;21.904;2023-04-28T00:30:35;47.10;;;25.70;;
36137;SDS011;67787;50.074;21.904;2023-04-28T00:33:22;52.30;;;26.10;;
36137;SDS011;67787;50.074;21.904;2023-04-28T00:35:57;44.60;;;21.70;;
36137;SDS011;67787;50.074;21.904;2023-04-28T00:38:25;35.30;;;16.90;;
36137;SDS011;67787;50.074;21.904;2023-04-28T00:40:53;34.40;;;17.40;;
36137;SDS011;67787;50.074;21.904;2023-04-28T00:43:21;39.20;;;18.70;;
36137;SDS011;67787;50.074;21.904;2023-04-28T00:45:49;39.30;;;18.40;;
36137;SDS011;67787;50.074;21.904;2023-04-28T00:48:18;31.90;;;16.50;;
36137;SDS011;67787;50.074;21.904;2023-04-28T00:50:46;32.80;;;17.60;;
36137;SDS011;67787;50.074;21.904;2023-04-28T00:53:14;36.00;;;15.40;;
36137;SDS011;67787;50.074;21.904;2023-04-28T00:55:42;29.00;;;14.10;;
36137;SDS011;67787;50.074;21.904;2023-04-28T00:58:13;29.10;;;14.10;;
36137;SDS011;67787;50.074;21.904;2023-04-28T01:00:41;29.90;;;14.00;;
36137;SDS011;67787;50.074;21.904;2023-04-28T01:03:09;31.70;;;15.30;;
36137;SDS011;67787;50.074;21.904;2023-04-28T01:05:37;28.20;;;13.70;;
36137;SDS011;67787;50.074;21.904;2023-04-28T01:08:26;28.40;;;14.00;;
36137;SDS011;67787;50.074;21.904;2023-04-28T01:10:55;29.60;;;13.80;;
36137;SDS011;67787;50.074;21.904;2023-04-28T01:13:23;27.80;;;13.20;;
36137;SDS011;67787;50.074;21.904;2023-04-28T01:15:51;27.50;;;12.80;;
36137;SDS011;67787;50.074;21.904;2023-04-28T01:18:19;24.50;;;12.10;;
36137;SDS011;67787;50.074;21.904;2023-04-28T01:20:47;24.50;;;11.40;;
36137;SDS011;67787;50.074;21.904;2023-04-28T01:23:16;23.50;;;11.70;;
36137;SDS011;67787;50.074;21.904;2023-04-28T01:25:44;24.90;;;11.60;;
36137;SDS011;67787;50.074;21.904;2023-04-28T01:28:12;22.90;;;10.60;;
36137;SDS011;67787;50.074;21.904;2023-04-28T01:30:39;25.30;;;11.10;;
36137;SDS011;67787;50.074;21.904;2023-04-28T01:33:07;25.00;;;11.30;;
36137;SDS011;67787;50.074;21.904;2023-04-28T01:35:36;26.00;;;11.40;;
36137;SDS011;67787;50.074;21.904;2023-04-28T01:38:04;21.50;;;10.20;;
36137;SDS011;67787;50.074;21.904;2023-04-28T01:40:32;22.20;;;10.10;;
36137;SDS011;67787;50.074;21.904;2023-04-28T01:43:00;21.60;;;9.90;;
36137;SDS011;67787;50.074;21.904;2023-04-28T01:45:28;22.90;;;10.70;;
36137;SDS011;67787;50.074;21.904;2023-04-28T01:47:56;21.40;;;10.10;;
36137;SDS011;67787;50.074;21.904;2023-04-28T01:50:25;21.80;;;10.30;;
36137;SDS011;67787;50.074;21.904;2023-04-28T01:53:11;22.90;;;9.60;;
36137;SDS011;67787;50.074;21.904;2023-04-28T01:55:40;23.20;;;10.60;;
36137;SDS011;67787;50.074;21.904;2023-04-28T01:58:08;20.00;;;9.40;;
36137;SDS011;67787;50.074;21.904;2023-04-28T02:00:37;26.10;;;12.20;;
36137;SDS011;67787;50.074;21.904;2023-04-28T02:03:05;27.40;;;12.30;;
36137;SDS011;67787;50.074;21.904;2023-04-28T02:05:33;28.90;;;13.20;;
36137;SDS011;67787;50.074;21.904;2023-04-28T02:08:01;30.30;;;13.80;;
36137;SDS011;67787;50.074;21.904;2023-04-28T02:10:28;24.90;;;10.80;;
36137;SDS011;67787;50.074;21.904;2023-04-28T02:12:56;27.60;;;11.20;;
36137;SDS011;67787;50.074;21.904;2023-04-28T02:15:25;22.60;;;11.00;;
36137;SDS011;67787;50.074;21.904;2023-04-28T02:17:53;23.20;;;10.80;;
36137;SDS011;67787;50.074;21.904;2023-04-28T02:20:21;23.90;;;11.70;;
36137;SDS011;67787;50.074;21.904;2023-04-28T02:22:49;22.90;;;11.50;;
36137;SDS011;67787;50.074;21.904;2023-04-28T02:25:17;26.20;;;13.40;;
36137;SDS011;67787;50.074;21.904;2023-04-28T02:27:44;25.60;;;13.50;;
36137;SDS011;67787;50.074;21.904;2023-04-28T02:30:13;27.40;;;14.70;;
36137;SDS011;67787;50.074;21.904;2023-04-28T02:32:41;28.30;;;13.10;;
36137;SDS011;67787;50.074;21.904;2023-04-28T02:35:09;26.30;;;13.20;;
36137;SDS011;67787;50.074;21.904;2023-04-28T02:37:37;25.90;;;12.50;;
36137;SDS011;67787;50.074;21.904;2023-04-28T02:40:05;23.10;;;11.80;;
36137;SDS011;67787;50.074;21.904;2023-04-28T02:42:34;23.10;;;11.10;;
36137;SDS011;67787;50.074;21.904;2023-04-28T02:45:03;25.50;;;12.20;;
36137;SDS011;67787;50.074;21.904;2023-04-28T02:47:32;24.40;;;11.80;;
36137;SDS011;67787;50.074;21.904;2023-04-28T02:50:00;27.70;;;12.50;;
36137;SDS011;67787;50.074;21.904;2023-04-28T02:52:27;37.30;;;13.50;;
36137;SDS011;67787;50.074;21.904;2023-04-28T02:54:55;28.10;;;13.50;;
36137;SDS011;67787;50.074;21.904;2023-04-28T02:57:24;30.20;;;15.10;;
36137;SDS011;67787;50.074;21.904;2023-04-28T02:59:53;33.60;;;17.60;;
36137;SDS011;67787;50.074;21.904;2023-04-28T03:02:20;26.30;;;13.30;;
36137;SDS011;67787;50.074;21.904;2023-04-28T03:04:49;28.80;;;15.20;;
36137;SDS011;67787;50.074;21.904;2023-04-28T03:07:18;27.50;;;12.80;;
36137;SDS011;67787;50.074;21.904;2023-04-28T03:09:45;25.40;;;13.50;;
36137;SDS011;67787;50.074;21.904;2023-04-28T03:12:15;27.40;;;14.00;;
36137;SDS011;67787;50.074;21.904;2023-04-28T03:14:42;25.00;;;12.90;;
36137;SDS011;67787;50.074;21.904;2023-04-28T03:17:10;28.30;;;14.10;;
36137;SDS011;67787;50.074;21.904;2023-04-28T03:19:40;29.20;;;14.70;;
36137;SDS011;67787;50.074;21.904;2023-04-28T03:22:08;28.70;;;13.60;;
36137;SDS011;67787;50.074;21.904;2023-04-28T03:24:36;25.30;;;12.50;;
36137;SDS011;67787;50.074;21.904;2023-04-28T03:27:03;27.00;;;12.20;;
36137;SDS011;67787;50.074;21.904;2023-04-28T03:29:32;24.90;;;11.70;;
36137;SDS011;67787;50.074;21.904;2023-04-28T03:32:00;24.50;;;11.00;;
36137;SDS011;67787;50.074;21.904;2023-04-28T03:34:28;24.90;;;11.10;;
36137;SDS011;67787;50.074;21.904;2023-04-28T03:36:55;22.90;;;11.50;;
36137;SDS011;67787;50.074;21.904;2023-04-28T03:39:23;26.10;;;11.70;;
36137;SDS011;67787;50.074;21.904;2023-04-28T03:41:51;35.10;;;14.10;;
36137;SDS011;67787;50.074;21.904;2023-04-28T03:44:19;32.30;;;14.80;;
36137;SDS011;67787;50.074;21.904;2023-04-28T03:46:48;31.20;;;14.10;;
36137;SDS011;67787;50.074;21.904;2023-04-28T03:49:16;28.20;;;13.50;;
36137;SDS011;67787;50.074;21.904;2023-04-28T03:51:44;27.40;;;12.20;;
36137;SDS011;67787;50.074;21.904;2023-04-28T03:54:11;27.60;;;11.80;;
36137;SDS011;67787;50.074;21.904;2023-04-28T03:56:40;26.60;;;11.50;;
36137;SDS011;67787;50.074;21.904;2023-04-28T03:59:08;23.50;;;11.10;;
36137;SDS011;67787;50.074;21.904;2023-04-28T04:01:38;23.70;;;11.60;;
36137;SDS011;67787;50.074;21.904;2023-04-28T04:04:06;23.50;;;11.70;;
36137;SDS011;67787;50.074;21.904;2023-04-28T04:06:34;24.10;;;11.00;;
36137;SDS011;67787;50.074;21.904;2023-04-28T04:09:02;22.90;;;10.60;;
36137;SDS011;67787;50.074;21.904;2023-04-28T04:11:30;21.80;;;10.50;;
36137;SDS011;67787;50.074;21.904;2023-04-28T04:13:58;23.50;;;10.80;;
36137;SDS011;67787;50.074;21.904;2023-04-28T04:16:26;31.00;;;13.00;;
36137;SDS011;67787;50.074;21.904;2023-04-28T04:18:54;21.70;;;10.40;;
36137;SDS011;67787;50.074;21.904;2023-04-28T04:21:22;21.10;;;9.80;;
36137;SDS011;67787;50.074;21.904;2023-04-28T04:23:50;23.10;;;11.40;;
36137;SDS011;67787;50.074;21.904;2023-04-28T04:26:17;21.40;;;10.50;;
36137;SDS011;67787;50.074;21.904;2023-04-28T04:28:46;24.40;;;13.20;;
36137;SDS011;67787;50.074;21.904;2023-04-28T04:31:13;23.70;;;11.80;;
36137;SDS011;67787;50.074;21.904;2023-04-28T04:33:42;26.90;;;14.60;;
36137;SDS011;67787;50.074;21.904;2023-04-28T04:36:10;33.00;;;15.50;;
36137;SDS011;67787;50.074;21.904;2023-04-28T04:38:38;27.70;;;14.90;;
36137;SDS011;67787;50.074;21.904;2023-04-28T04:41:06;30.10;;;15.20;;
36137;SDS011;67787;50.074;21.904;2023-04-28T04:43:34;26.80;;;14.70;;
36137;SDS011;67787;50.074;21.904;2023-04-28T04:46:02;30.10;;;16.60;;
36137;SDS011;67787;50.074;21.904;2023-04-28T04:48:31;31.00;;;17.30;;
36137;SDS011;67787;50.074;21.904;2023-04-28T04:50:59;32.50;;;16.40;;
36137;SDS011;67787;50.074;21.904;2023-04-28T04:53:26;27.50;;;15.30;;
36137;SDS011;67787;50.074;21.904;2023-04-28T04:55:54;29.70;;;15.60;;
36137;SDS011;67787;50.074;21.904;2023-04-28T04:58:22;27.40;;;14.30;;
36137;SDS011;67787;50.074;21.904;2023-04-28T05:00:51;33.70;;;16.80;;
36137;SDS011;67787;50.074;21.904;2023-04-28T05:03:19;28.90;;;16.10;;
36137;SDS011;67787;50.074;21.904;2023-04-28T05:05:48;30.20;;;15.50;;
36137;SDS011;67787;50.074;21.904;2023-04-28T05:08:15;33.90;;;16.10;;
36137;SDS011;67787;50.074;21.904;2023-04-28T05:10:43;31.60;;;16.70;;
36137;SDS011;67787;50.074;21.904;2023-04-28T05:13:11;32.10;;;17.50;;
36137;SDS011;67787;50.074;21.904;2023-04-28T05:15:39;31.60;;;16.90;;
36137;SDS011;67787;50.074;21.904;2023-04-28T05:18:07;35.90;;;18.80;;
36137;SDS011;67787;50.074;21.904;2023-04-28T05:20:38;29.10;;;15.10;;
36137;SDS011;67787;50.074;21.904;2023-04-28T05:23:06;28.00;;;16.30;;
36137;SDS011;67787;50.074;21.904;2023-04-28T05:25:34;33.00;;;17.40;;
36137;SDS011;67787;50.074;21.904;2023-04-28T05:28:02;31.10;;;16.90;;
36137;SDS011;67787;50.074;21.904;2023-04-28T05:30:34;34.20;;;17.80;;
36137;SDS011;67787;50.074;21.904;2023-04-28T05:33:02;33.90;;;18.30;;
36137;SDS011;67787;50.074;21.904;2023-04-28T05:35:30;33.80;;;17.50;;
36137;SDS011;67787;50.074;21.904;2023-04-28T05:37:58;32.20;;;18.00;;
36137;SDS011;67787;50.074;21.904;2023-04-28T05:40:26;33.90;;;17.50;;
36137;SDS011;67787;50.074;21.904;2023-04-28T05:42:55;35.50;;;18.00;;
36137;SDS011;67787;50.074;21.904;2023-04-28T05:45:23;31.10;;;16.60;;
36137;SDS011;67787;50.074;21.904;2023-04-28T05:47:52;31.00;;;16.70;;
36137;SDS011;67787;50.074;21.904;2023-04-28T05:50:20;31.60;;;16.80;;
36137;SDS011;67787;50.074;21.904;2023-04-28T05:52:48;32.10;;;16.70;;
36137;SDS011;67787;50.074;21.904;2023-04-28T05:55:16;30.90;;;16.30;;
36137;SDS011;67787;50.074;21.904;2023-04-28T05:57:43;26.90;;;14.10;;
36137;SDS011;67787;50.074;21.904;2023-04-28T06:00:19;28.40;;;14.40;;
36137;SDS011;67787;50.074;21.904;2023-04-28T06:02:48;25.40;;;12.80;;
36137;SDS011;67787;50.074;21.904;2023-04-28T06:05:17;26.00;;;14.00;;
36137;SDS011;67787;50.074;21.904;2023-04-28T06:07:46;26.20;;;12.40;;
36137;SDS011;67787;50.074;21.904;2023-04-28T06:12:04;26.10;;;11.50;;
36137;SDS011;67787;50.074;21.904;2023-04-28T06:14:32;26.00;;;12.50;;
36137;SDS011;67787;50.074;21.904;2023-04-28T06:17:43;25.80;;;12.20;;
36137;SDS011;67787;50.074;21.904;2023-04-28T06:20:12;23.60;;;12.10;;
36137;SDS011;67787;50.074;21.904;2023-04-28T06:22:40;27.80;;;12.50;;
36137;SDS011;67787;50.074;21.904;2023-04-28T06:25:09;24.60;;;11.70;;
36137;SDS011;67787;50.074;21.904;2023-04-28T06:27:37;23.40;;;12.60;;
36137;SDS011;67787;50.074;21.904;2023-04-28T06:30:05;28.10;;;12.60;;
36137;SDS011;67787;50.074;21.904;2023-04-28T06:32:34;22.80;;;11.50;;
36137;SDS011;67787;50.074;21.904;2023-04-28T06:35:02;23.00;;;11.30;;
36137;SDS011;67787;50.074;21.904;2023-04-28T06:37:30;23.80;;;11.30;;
36137;SDS011;67787;50.074;21.904;2023-04-28T06:39:58;25.30;;;11.40;;
36137;SDS011;67787;50.074;21.904;2023-04-28T06:42:26;19.90;;;9.10;;
36137;SDS011;67787;50.074;21.904;2023-04-28T06:44:55;22.50;;;9.40;;
36137;SDS011;67787;50.074;21.904;2023-04-28T06:47:23;21.20;;;9.90;;
36137;SDS011;67787;50.074;21.904;2023-04-28T06:49:51;22.20;;;10.10;;
36137;SDS011;67787;50.074;21.904;2023-04-28T06:52:19;21.20;;;9.80;;
36137;SDS011;67787;50.074;21.904;2023-04-28T06:55:06;24.90;;;10.60;;
36137;SDS011;67787;50.074;21.904;2023-04-28T06:57:35;22.00;;;9.80;;
36137;SDS011;67787;50.074;21.904;2023-04-28T07:00:05;23.60;;;10.80;;
36137;SDS011;67787;50.074;21.904;2023-04-28T07:02:34;24.00;;;10.40;;
36137;SDS011;67787;50.074;21.904;2023-04-28T07:05:03;24.30;;;10.70;;
36137;SDS011;67787;50.074;21.904;2023-04-28T07:07:32;23.30;;;10.40;;
36137;SDS011;67787;50.074;21.904;2023-04-28T07:10:00;21.40;;;9.90;;
36137;SDS011;67787;50.074;21.904;2023-04-28T07:12:28;23.70;;;9.40;;
36137;SDS011;67787;50.074;21.904;2023-04-28T07:14:56;20.10;;;8.70;;
36137;SDS011;67787;50.074;21.904;2023-04-28T07:17:24;21.70;;;9.50;;
36137;SDS011;67787;50.074;21.904;2023-04-28T07:19:53;19.60;;;9.40;;
36137;SDS011;67787;50.074;21.904;2023-04-28T07:22:21;20.70;;;8.20;;
36137;SDS011;67787;50.074;21.904;2023-04-28T07:24:49;18.90;;;6.90;;
36137;SDS011;67787;50.074;21.904;2023-04-28T07:27:17;18.10;;;7.20;;
36137;SDS011;67787;50.074;21.904;2023-04-28T07:29:45;18.10;;;7.70;;
36137;SDS011;67787;50.074;21.904;2023-04-28T07:32:13;21.60;;;8.20;;
36137;SDS011;67787;50.074;21.904;2023-04-28T07:34:42;21.80;;;8.50;;
36137;SDS011;67787;50.074;21.904;2023-04-28T07:37:09;18.60;;;7.20;;
36137;SDS011;67787;50.074;21.904;2023-04-28T07:39:38;19.60;;;7.40;;
36137;SDS011;67787;50.074;21.904;2023-04-28T07:42:07;16.70;;;7.30;;
36137;SDS011;67787;50.074;21.904;2023-04-28T07:44:35;18.40;;;7.40;;
36137;SDS011;67787;50.074;21.904;2023-04-28T07:47:04;17.90;;;7.30;;
36137;SDS011;67787;50.074;21.904;2023-04-28T07:49:32;20.10;;;7.30;;
36137;SDS011;67787;50.074;21.904;2023-04-28T07:52:00;17.30;;;7.50;;
36137;SDS011;67787;50.074;21.904;2023-04-28T07:54:28;16.80;;;7.80;;
36137;SDS011;67787;50.074;21.904;2023-04-28T07:56:56;21.50;;;7.90;;
36137;SDS011;67787;50.074;21.904;2023-04-28T07:59:25;18.10;;;7.30;;
36137;SDS011;67787;50.074;21.904;2023-04-28T08:01:53;14.80;;;6.60;;
36137;SDS011;67787;50.074;21.904;2023-04-28T08:04:21;17.70;;;7.50;;
36137;SDS011;67787;50.074;21.904;2023-04-28T08:06:50;20.30;;;8.10;;
36137;SDS011;67787;50.074;21.904;2023-04-28T08:09:22;18.50;;;7.20;;
36137;SDS011;67787;50.074;21.904;2023-04-28T08:11:51;18.80;;;7.00;;
36137;SDS011;67787;50.074;21.904;2023-04-28T08:14:19;19.50;;;6.10;;
36137;SDS011;67787;50.074;21.904;2023-04-28T08:16:48;11.20;;;4.20;;
36137;SDS011;67787;50.074;21.904;2023-04-28T08:19:16;10.80;;;4.70;;
36137;SDS011;67787;50.074;21.904;2023-04-28T08:21:44;12.30;;;4.90;;
36137;SDS011;67787;50.074;21.904;2023-04-28T08:24:11;13.80;;;4.90;;
36137;SDS011;67787;50.074;21.904;2023-04-28T08:26:41;14.30;;;4.80;;
36137;SDS011;67787;50.074;21.904;2023-04-28T08:29:09;13.90;;;5.30;;
36137;SDS011;67787;50.074;21.904;2023-04-28T08:31:42;12.60;;;5.50;;
36137;SDS011;67787;50.074;21.904;2023-04-28T08:34:11;12.50;;;5.10;;
36137;SDS011;67787;50.074;21.904;2023-04-28T08:36:43;17.40;;;5.70;;
36137;SDS011;67787;50.074;21.904;2023-04-28T08:39:11;17.10;;;5.40;;
36137;SDS011;67787;50.074;21.904;2023-04-28T08:41:40;12.60;;;5.20;;
36137;SDS011;67787;50.074;21.904;2023-04-28T08:44:08;13.70;;;5.40;;
36137;SDS011;67787;50.074;21.904;2023-04-28T08:46:39;13.70;;;5.50;;
36137;SDS011;67787;50.074;21.904;2023-04-28T08:49:15;13.40;;;5.90;;
36137;SDS011;67787;50.074;21.904;2023-04-28T08:51:55;14.00;;;5.90;;
36137;SDS011;67787;50.074;21.904;2023-04-28T08:54:32;15.20;;;5.30;;
36137;SDS011;67787;50.074;21.904;2023-04-28T08:57:03;12.80;;;5.00;;
36137;SDS011;67787;50.074;21.904;2023-04-28T09:02:27;12.00;;;5.70;;
36137;SDS011;67787;50.074;21.904;2023-04-28T09:04:55;10.60;;;4.70;;
36137;SDS011;67787;50.074;21.904;2023-04-28T09:07:24;14.50;;;5.20;;
36137;SDS011;67787;50.074;21.904;2023-04-28T09:10:08;10.50;;;4.90;;
36137;SDS011;67787;50.074;21.904;2023-04-28T09:12:49;14.90;;;5.70;;
36137;SDS011;67787;50.074;21.904;2023-04-28T09:15:34;13.60;;;4.90;;
36137;SDS011;67787;50.074;21.904;2023-04-28T09:18:04;14.80;;;5.90;;
36137;SDS011;67787;50.074;21.904;2023-04-28T09:20:37;9.80;;;5.00;;
36137;SDS011;67787;50.074;21.904;2023-04-28T09:23:11;11.20;;;5.20;;
36137;SDS011;67787;50.074;21.904;2023-04-28T09:25:59;11.80;;;4.80;;
36137;SDS011;67787;50.074;21.904;2023-04-28T09:28:38;10.70;;;4.80;;
36137;SDS011;67787;50.074;21.904;2023-04-28T09:31:52;12.90;;;4.80;;
36137;SDS011;67787;50.074;21.904;2023-04-28T09:34:17;12.60;;;5.10;;
36137;SDS011;67787;50.074;21.904;2023-04-28T09:36:46;12.90;;;5.10;;
36137;SDS011;67787;50.074;21.904;2023-04-28T09:39:26;10.50;;;5.10;;
36137;SDS011;67787;50.074;21.904;2023-04-28T09:41:56;11.10;;;4.40;;
36137;SDS011;67787;50.074;21.904;2023-04-28T09:44:25;12.10;;;5.00;;
36137;SDS011;67787;50.074;21.904;2023-04-28T09:46:54;14.30;;;5.40;;
36137;SDS011;67787;50.074;21.904;2023-04-28T09:49:22;11.40;;;5.40;;
36137;SDS011;67787;50.074;21.904;2023-04-28T09:51:50;9.60;;;4.70;;
36137;SDS011;67787;50.074;21.904;2023-04-28T09:54:18;8.10;;;4.50;;
36137;SDS011;67787;50.074;21.904;2023-04-28T09:56:48;13.80;;;5.00;;
36137;SDS011;67787;50.074;21.904;2023-04-28T09:59:18;12.70;;;5.00;;
36137;SDS011;67787;50.074;21.904;2023-04-28T10:07:34;13.20;;;5.40;;
